createdAt,value
2022-10-23T00:01:41.655Z,99.90
2022-10-23T00:04:13.220Z,99.90
2022-10-23T00:06:41.744Z,99.90
2022-10-23T00:09:13.613Z,99.90
2022-10-23T00:11:44.460Z,99.90
2022-10-23T00:14:12.578Z,99.90
2022-10-23T00:16:40.692Z,99.90
2022-10-23T00:19:08.710Z,99.90
2022-10-23T00:21:36.985Z,99.90
2022-10-23T00:24:05.519Z,99.90
2022-10-23T00:26:35.002Z,99.90
2022-10-23T00:29:03.049Z,99.90
2022-10-23T00:31:31.137Z,99.90
2022-10-23T00:33:59.251Z,99.90
2022-10-23T00:36:27.288Z,99.90
2022-10-23T00:38:56.282Z,99.90
2022-10-23T00:41:28.402Z,99.90
2022-10-23T00:44:02.021Z,99.90
2022-10-23T00:46:30.800Z,99.90
2022-10-23T00:48:59.786Z,99.90
2022-10-23T00:51:32.300Z,99.90
2022-10-23T00:54:22.964Z,99.90
2022-10-23T00:56:52.165Z,99.90
2022-10-23T00:59:21.568Z,99.90
2022-10-23T01:01:49.861Z,99.90
2022-10-23T01:04:18.322Z,99.90
2022-10-23T01:06:53.882Z,99.90
2022-10-23T01:09:29.571Z,99.90
2022-10-23T01:12:02.029Z,99.90
2022-10-23T01:14:45.789Z,99.90
2022-10-23T01:17:22.982Z,99.90
2022-10-23T01:20:06.758Z,99.90
2022-10-23T01:22:50.994Z,99.90
2022-10-23T01:25:28.898Z,99.90
2022-10-23T01:28:02.615Z,99.90
2022-10-23T01:30:31.805Z,99.90
2022-10-23T01:33:05.985Z,99.90
2022-10-23T01:35:38.262Z,99.90
2022-10-23T01:38:13.475Z,99.90
2022-10-23T01:40:49.342Z,99.90
2022-10-23T01:43:21.365Z,99.90
2022-10-23T01:45:54.314Z,99.90
2022-10-23T01:48:27.062Z,99.90
2022-10-23T01:50:58.413Z,99.90
2022-10-23T01:53:30.660Z,99.90
2022-10-23T01:56:02.321Z,99.90
2022-10-23T01:58:34.654Z,99.90
2022-10-23T02:01:05.565Z,99.90
2022-10-23T02:03:36.331Z,99.90
2022-10-23T02:06:04.648Z,99.90
2022-10-23T02:08:32.931Z,99.90
2022-10-23T02:11:08.024Z,99.90
2022-10-23T02:13:43.510Z,99.90
2022-10-23T02:16:19.762Z,99.90
2022-10-23T02:18:56.118Z,99.90
2022-10-23T02:21:29.890Z,99.90
2022-10-23T02:24:03.902Z,99.90
2022-10-23T02:26:37.220Z,99.90
2022-10-23T02:29:09.918Z,99.90
2022-10-23T02:31:38.192Z,99.90
2022-10-23T02:34:06.259Z,99.90
2022-10-23T02:36:34.528Z,99.90
2022-10-23T02:39:02.620Z,99.90
2022-10-23T02:41:39.173Z,99.90
2022-10-23T02:44:22.424Z,99.90
2022-10-23T02:46:57.086Z,99.90
2022-10-23T02:49:32.626Z,99.90
2022-10-23T02:52:08.756Z,99.90
2022-10-23T02:54:50.078Z,99.90
2022-10-23T02:57:28.442Z,99.90
2022-10-23T03:00:04.809Z,99.90
2022-10-23T03:02:38.784Z,99.90
2022-10-23T03:05:10.004Z,99.90
2022-10-23T03:07:40.172Z,99.90
2022-10-23T03:10:10.021Z,99.90
2022-10-23T03:12:38.647Z,99.90
2022-10-23T03:15:09.657Z,99.90
2022-10-23T03:17:37.675Z,99.90
2022-10-23T03:20:06.142Z,99.90
2022-10-23T03:22:34.310Z,99.90
2022-10-23T03:25:02.459Z,99.90
2022-10-23T03:27:30.606Z,99.90
2022-10-23T03:29:58.721Z,99.90
2022-10-23T03:32:28.308Z,99.90
2022-10-23T03:34:56.339Z,99.90
2022-10-23T03:37:24.546Z,99.90
2022-10-23T03:39:52.884Z,99.90
2022-10-23T03:42:20.941Z,99.90
2022-10-23T03:44:49.463Z,99.90
2022-10-23T03:47:17.503Z,99.90
2022-10-23T03:49:46.911Z,99.90
2022-10-23T03:52:15.082Z,99.90
2022-10-23T03:54:43.263Z,99.90
2022-10-23T03:57:11.298Z,99.90
2022-10-23T03:59:39.378Z,99.90
2022-10-23T04:02:07.531Z,99.90
2022-10-23T04:04:35.811Z,99.90
2022-10-23T04:07:05.192Z,99.90
2022-10-23T04:09:33.257Z,99.90
2022-10-23T04:12:01.376Z,99.90
2022-10-23T04:14:29.661Z,99.90
2022-10-23T04:16:57.747Z,99.90
2022-10-23T04:19:26.008Z,99.90
2022-10-23T04:21:54.045Z,99.90
2022-10-23T04:24:24.258Z,99.90
2022-10-23T04:26:52.592Z,99.90
2022-10-23T04:29:22.484Z,99.90
2022-10-23T04:31:51.345Z,99.90
2022-10-23T04:34:19.373Z,99.90
2022-10-23T04:36:47.408Z,99.90
2022-10-23T04:39:15.956Z,99.90
2022-10-23T04:41:45.352Z,99.90
2022-10-23T04:44:13.414Z,99.90
2022-10-23T04:46:41.429Z,99.90
2022-10-23T04:49:09.587Z,99.90
2022-10-23T04:51:39.181Z,99.90
2022-10-23T04:54:07.311Z,99.90
2022-10-23T04:56:35.755Z,99.90
2022-10-23T05:01:38.411Z,99.90
2022-10-23T05:04:06.533Z,99.90
2022-10-23T05:06:34.573Z,99.90
2022-10-23T05:09:02.670Z,99.90
2022-10-23T05:11:30.861Z,99.90
2022-10-23T05:13:58.953Z,99.90
2022-10-23T05:16:36.381Z,99.90
2022-10-23T05:19:05.851Z,99.90
2022-10-23T05:21:36.902Z,99.90
2022-10-23T05:24:05.442Z,99.90
2022-10-23T05:26:33.827Z,99.90
2022-10-23T05:29:01.916Z,99.90
2022-10-23T05:31:31.567Z,99.90
2022-10-23T05:34:00.868Z,99.90
2022-10-23T05:36:29.178Z,99.90
2022-10-23T05:38:57.578Z,99.90
2022-10-23T05:41:25.777Z,99.90
2022-10-23T05:43:54.164Z,99.90
2022-10-23T05:46:23.126Z,99.90
2022-10-23T05:48:53.368Z,99.90
2022-10-23T05:51:23.122Z,99.90
2022-10-23T05:53:51.779Z,99.90
2022-10-23T05:56:20.395Z,99.90
2022-10-23T05:58:48.491Z,99.90
2022-10-23T06:01:18.516Z,99.90
2022-10-23T06:03:46.741Z,99.90
2022-10-23T06:06:16.192Z,99.90
2022-10-23T06:08:44.246Z,99.90
2022-10-23T06:11:13.693Z,99.90
2022-10-23T06:13:43.998Z,99.90
2022-10-23T06:16:12.868Z,99.90
2022-10-23T06:18:40.950Z,99.90
2022-10-23T06:21:09.310Z,99.90
2022-10-23T06:23:41.245Z,99.90
2022-10-23T06:26:11.209Z,99.90
2022-10-23T06:28:39.978Z,99.90
2022-10-23T06:31:08.963Z,99.90
2022-10-23T06:33:37.033Z,99.90
2022-10-23T06:36:06.287Z,99.90
2022-10-23T06:38:37.045Z,99.90
2022-10-23T06:41:07.110Z,99.90
2022-10-23T06:43:35.373Z,99.90
2022-10-23T06:46:04.653Z,99.90
2022-10-23T06:48:33.122Z,99.90
2022-10-23T06:51:06.297Z,99.90
2022-10-23T06:53:35.675Z,99.90
2022-10-23T06:56:07.156Z,99.90
2022-10-23T06:58:35.933Z,99.90
2022-10-23T07:01:06.068Z,99.90
2022-10-23T07:03:35.290Z,99.90
2022-10-23T07:06:04.131Z,99.90
2022-10-23T07:08:32.339Z,99.90
2022-10-23T07:11:06.638Z,99.90
2022-10-23T07:13:36.023Z,99.90
2022-10-23T07:16:11.084Z,99.90
2022-10-23T07:18:39.188Z,99.90
2022-10-23T07:21:07.331Z,99.90
2022-10-23T07:23:35.489Z,99.90
2022-10-23T07:26:09.737Z,99.90
2022-10-23T07:28:41.297Z,99.90
2022-10-23T07:31:09.850Z,99.90
2022-10-23T07:33:38.659Z,99.90
2022-10-23T07:36:08.945Z,99.90
2022-10-23T07:38:36.980Z,99.90
2022-10-23T07:41:08.879Z,99.90
2022-10-23T07:43:40.938Z,99.90
2022-10-23T07:46:09.860Z,99.90
2022-10-23T07:48:38.644Z,99.90
2022-10-23T07:51:10.503Z,99.90
2022-10-23T07:53:38.880Z,99.90
2022-10-23T07:56:14.456Z,99.90
2022-10-23T07:58:44.041Z,99.90
2022-10-23T08:01:19.295Z,99.90
2022-10-23T08:03:47.819Z,99.90
2022-10-23T08:06:15.849Z,99.90
2022-10-23T08:11:24.858Z,99.90
2022-10-23T08:13:54.681Z,99.90
2022-10-23T08:16:23.283Z,99.90
2022-10-23T08:18:51.953Z,99.90
2022-10-23T08:21:20.565Z,99.90
2022-10-23T08:23:48.584Z,99.90
2022-10-23T08:26:17.007Z,99.90
2022-10-23T08:28:45.089Z,99.90
2022-10-23T08:31:16.410Z,99.90
2022-10-23T08:33:44.483Z,99.90
2022-10-23T08:36:19.515Z,99.90
2022-10-23T08:38:48.194Z,99.90
2022-10-23T08:41:26.480Z,99.90
2022-10-23T08:43:59.542Z,99.90
2022-10-23T08:46:33.681Z,99.90
2022-10-23T08:49:16.749Z,99.90
2022-10-23T08:51:48.470Z,99.90
2022-10-23T08:54:20.654Z,99.90
2022-10-23T08:56:53.215Z,99.90
2022-10-23T08:59:27.871Z,99.90
2022-10-23T09:02:02.280Z,99.90
2022-10-23T09:04:30.601Z,99.90
2022-10-23T09:10:00.496Z,99.90
2022-10-23T09:12:31.045Z,99.90
2022-10-23T09:15:28.943Z,99.90
2022-10-23T09:18:02.021Z,99.90
2022-10-23T09:20:34.153Z,99.90
2022-10-23T09:23:05.198Z,99.90
2022-10-23T09:25:38.202Z,99.90
2022-10-23T09:28:06.533Z,99.90
2022-10-23T09:30:37.650Z,99.90
2022-10-23T09:33:17.349Z,99.90
2022-10-23T09:35:57.073Z,99.90
2022-10-23T09:38:31.290Z,99.90
2022-10-23T09:41:01.492Z,99.90
2022-10-23T09:43:30.241Z,99.90
2022-10-23T09:46:00.389Z,99.90
2022-10-23T09:48:30.403Z,99.90
2022-10-23T09:51:01.206Z,99.90
2022-10-23T09:53:36.128Z,99.90
2022-10-23T09:56:11.746Z,99.90
2022-10-23T09:58:44.440Z,99.90
2022-10-23T10:01:24.391Z,99.90
2022-10-23T10:03:54.293Z,99.90
2022-10-23T10:06:25.283Z,99.90
2022-10-23T10:08:55.485Z,99.90
2022-10-23T10:11:31.687Z,99.90
2022-10-23T10:14:38.323Z,99.90
2022-10-23T10:17:13.555Z,99.90
2022-10-23T10:20:03.786Z,99.90
2022-10-23T10:22:40.278Z,99.90
2022-10-23T10:25:17.951Z,99.90
2022-10-23T10:27:57.924Z,99.90
2022-10-23T10:30:31.779Z,99.90
2022-10-23T10:33:04.257Z,99.90
2022-10-23T10:35:41.702Z,99.90
2022-10-23T10:38:38.114Z,99.90
2022-10-23T10:41:30.420Z,99.90
2022-10-23T10:44:23.974Z,99.90
2022-10-23T10:46:57.788Z,99.90
2022-10-23T10:49:33.750Z,99.90
2022-10-23T10:52:14.384Z,99.90
2022-10-23T10:54:53.505Z,99.90
2022-10-23T10:57:30.474Z,99.90
2022-10-23T11:00:02.393Z,99.90
2022-10-23T11:02:34.970Z,99.90
2022-10-23T11:05:13.453Z,99.90
2022-10-23T11:07:53.672Z,99.90
2022-10-23T11:10:21.727Z,99.90
2022-10-23T11:12:50.530Z,99.90
2022-10-23T11:15:22.943Z,99.90
2022-10-23T11:17:55.063Z,99.90
2022-10-23T11:20:39.966Z,99.90
2022-10-23T11:23:38.948Z,99.90
2022-10-23T11:26:21.179Z,99.90
2022-10-23T11:29:00.165Z,99.90
2022-10-23T11:31:39.603Z,99.90
2022-10-23T11:34:40.998Z,99.90
2022-10-23T11:37:09.136Z,99.90
2022-10-23T11:39:40.651Z,99.90
2022-10-23T11:42:29.136Z,99.90
2022-10-23T11:44:57.181Z,99.90
2022-10-23T11:47:39.553Z,99.90
2022-10-23T11:50:27.515Z,99.90
2022-10-23T11:53:19.920Z,99.90
2022-10-23T11:56:04.891Z,99.90
2022-10-23T11:58:47.803Z,99.90
2022-10-23T12:01:26.899Z,99.90
2022-10-23T12:03:58.145Z,99.90
2022-10-23T12:06:29.015Z,99.90
2022-10-23T12:09:02.232Z,99.90
2022-10-23T12:11:44.643Z,99.90
2022-10-23T12:14:34.097Z,99.90
2022-10-23T12:17:02.301Z,99.90
2022-10-23T12:19:39.722Z,99.90
2022-10-23T12:22:11.949Z,99.90
2022-10-23T12:25:01.671Z,99.90
2022-10-23T12:27:38.572Z,99.90
2022-10-23T12:30:21.007Z,99.90
2022-10-23T12:33:23.754Z,99.90
2022-10-23T12:36:22.641Z,99.90
2022-10-23T12:38:51.290Z,99.80
2022-10-23T12:41:23.052Z,99.60
2022-10-23T12:43:55.978Z,99.90
2022-10-23T12:46:31.667Z,99.40
2022-10-23T12:49:01.573Z,99.40
2022-10-23T12:51:31.900Z,98.60
2022-10-23T12:54:00.193Z,98.30
2022-10-23T12:56:35.349Z,98.50
2022-10-23T12:59:06.146Z,98.50
2022-10-23T13:01:38.387Z,98.20
2022-10-23T13:06:51.394Z,98.40
2022-10-23T13:09:25.385Z,98.00
2022-10-23T13:11:53.877Z,97.80
2022-10-23T13:14:40.635Z,98.60
2022-10-23T13:17:12.837Z,99.00
2022-10-23T13:19:40.997Z,99.00
2022-10-23T13:22:20.486Z,98.80
2022-10-23T13:24:48.848Z,99.20
2022-10-23T13:27:27.349Z,99.60
2022-10-23T13:29:56.802Z,99.50
2022-10-23T13:32:29.462Z,99.50
2022-10-23T13:35:10.194Z,99.60
2022-10-23T13:37:45.343Z,99.90
2022-10-23T13:40:24.327Z,99.70
2022-10-23T13:42:53.583Z,99.60
2022-10-23T13:45:25.359Z,99.70
2022-10-23T13:47:53.372Z,99.70
2022-10-23T13:50:21.482Z,99.90
2022-10-23T13:52:49.482Z,99.90
2022-10-23T13:55:23.167Z,99.90
2022-10-23T13:57:51.292Z,99.90
2022-10-23T14:00:19.914Z,99.90
2022-10-23T14:02:49.307Z,99.90
2022-10-23T14:05:17.380Z,99.90
2022-10-23T14:07:45.567Z,99.90
2022-10-23T14:10:13.895Z,99.90
2022-10-23T14:12:43.152Z,99.90
2022-10-23T14:15:12.587Z,99.90
2022-10-23T14:17:40.610Z,99.90
2022-10-23T14:20:11.584Z,99.90
2022-10-23T14:22:39.613Z,99.90
2022-10-23T14:25:08.198Z,99.90
2022-10-23T14:27:36.242Z,99.90
2022-10-23T14:30:05.571Z,99.90
2022-10-23T14:32:33.587Z,99.90
2022-10-23T14:35:03.768Z,99.90
2022-10-23T14:37:33.518Z,99.90
2022-10-23T14:40:01.889Z,99.90
2022-10-23T14:42:34.088Z,99.90
2022-10-23T14:45:02.865Z,99.90
2022-10-23T14:47:32.941Z,99.90
2022-10-23T14:50:01.103Z,99.90
2022-10-23T14:52:29.183Z,99.90
2022-10-23T14:54:58.616Z,99.90
2022-10-23T14:57:26.652Z,99.90
2022-10-23T14:59:54.676Z,99.90
2022-10-23T15:02:22.690Z,99.90
2022-10-23T15:04:50.707Z,99.90
2022-10-23T15:07:18.668Z,99.90
2022-10-23T15:09:46.722Z,99.90
2022-10-23T15:12:16.211Z,99.90
2022-10-23T15:14:44.293Z,99.90
2022-10-23T15:17:15.667Z,99.90
2022-10-23T15:19:43.993Z,99.90
2022-10-23T15:22:12.154Z,99.90
2022-10-23T15:24:40.266Z,99.90
2022-10-23T15:29:42.766Z,99.90
2022-10-23T15:32:11.410Z,99.90
2022-10-23T15:34:42.655Z,99.90
2022-10-23T15:37:11.775Z,99.90
2022-10-23T15:39:39.940Z,99.90
2022-10-23T15:42:08.249Z,99.90
2022-10-23T15:44:36.313Z,99.90
2022-10-23T15:47:05.788Z,99.90
2022-10-23T15:49:33.868Z,99.90
2022-10-23T15:52:02.360Z,99.90
2022-10-23T15:54:32.837Z,99.90
2022-10-23T15:57:02.325Z,99.90
2022-10-23T15:59:32.134Z,99.90
2022-10-23T16:02:00.847Z,99.90
2022-10-23T16:04:30.783Z,99.90
2022-10-23T16:06:58.779Z,99.90
2022-10-23T16:09:26.845Z,99.90
2022-10-23T16:11:54.826Z,99.90
2022-10-23T16:14:22.966Z,99.90
2022-10-23T16:16:50.985Z,99.90
2022-10-23T16:19:19.108Z,99.90
2022-10-23T16:21:48.509Z,99.90
2022-10-23T16:24:16.612Z,99.90
2022-10-23T16:26:50.152Z,99.90
2022-10-23T16:29:18.204Z,99.90
2022-10-23T16:31:46.256Z,99.90
2022-10-23T16:34:14.324Z,99.90
2022-10-23T16:36:42.408Z,99.90
2022-10-23T16:39:13.143Z,99.90
2022-10-23T16:41:41.345Z,99.90
2022-10-23T16:44:09.391Z,99.90
2022-10-23T16:46:38.887Z,99.90
2022-10-23T16:49:08.794Z,99.90
2022-10-23T16:51:37.143Z,99.90
2022-10-23T16:54:05.412Z,99.90
2022-10-23T16:56:34.766Z,99.90
2022-10-23T16:59:03.141Z,99.90
2022-10-23T17:01:33.381Z,99.90
2022-10-23T17:04:01.642Z,99.90
2022-10-23T17:06:31.842Z,99.90
2022-10-23T17:09:01.420Z,99.90
2022-10-23T17:11:30.967Z,99.90
2022-10-23T17:14:02.281Z,99.90
2022-10-23T17:16:34.379Z,99.90
2022-10-23T17:19:03.123Z,99.90
2022-10-23T17:21:34.371Z,99.90
2022-10-23T17:26:36.421Z,99.90
2022-10-23T17:29:09.022Z,99.90
2022-10-23T17:31:39.503Z,99.90
2022-10-23T17:34:12.644Z,99.90
2022-10-23T17:36:43.672Z,99.90
2022-10-23T17:39:14.139Z,99.90
2022-10-23T17:41:42.312Z,99.90
2022-10-23T17:44:11.837Z,99.90
2022-10-23T17:46:40.183Z,99.90
2022-10-23T17:49:08.410Z,99.90
2022-10-23T17:51:37.029Z,99.90
2022-10-23T17:54:08.028Z,99.90
2022-10-23T17:56:38.245Z,99.90
2022-10-23T17:59:08.674Z,99.90
2022-10-23T18:01:38.209Z,99.90
2022-10-23T18:04:08.484Z,99.90
2022-10-23T18:06:41.441Z,99.90
2022-10-23T18:09:09.583Z,99.90
2022-10-23T18:11:43.872Z,99.90
2022-10-23T18:14:15.171Z,99.90
2022-10-23T18:16:45.539Z,99.90
2022-10-23T18:19:14.662Z,99.90
2022-10-23T18:21:42.957Z,99.90
2022-10-23T18:24:11.425Z,99.90
2022-10-23T18:26:42.229Z,99.90
2022-10-23T18:29:12.146Z,99.90
2022-10-23T18:31:40.702Z,99.90
2022-10-23T18:34:17.167Z,99.90
2022-10-23T18:36:45.200Z,99.90
2022-10-23T18:39:15.784Z,99.90
2022-10-23T18:41:46.374Z,99.90
2022-10-23T18:44:17.603Z,99.90
2022-10-23T18:46:45.766Z,99.90
2022-10-23T18:49:15.833Z,99.90
2022-10-23T18:51:43.811Z,99.90
2022-10-23T18:54:14.270Z,99.90
2022-10-23T18:56:42.758Z,99.90
2022-10-23T18:59:13.387Z,99.90
2022-10-23T19:01:41.902Z,99.90
2022-10-23T19:04:11.656Z,99.90
2022-10-23T19:06:41.084Z,99.90
2022-10-23T19:09:10.909Z,99.90
2022-10-23T19:11:39.002Z,99.90
2022-10-23T19:14:07.090Z,99.90
2022-10-23T19:16:39.505Z,99.90
2022-10-23T19:19:13.960Z,99.90
2022-10-23T19:21:44.084Z,99.90
2022-10-23T19:24:16.913Z,99.90
2022-10-23T19:26:45.238Z,99.90
2022-10-23T19:29:17.129Z,99.90
2022-10-23T19:31:48.950Z,99.90
2022-10-23T19:34:19.948Z,99.90
2022-10-23T19:36:50.585Z,99.90
2022-10-23T19:39:19.066Z,99.90
2022-10-23T19:41:47.723Z,99.90
2022-10-23T19:44:16.159Z,99.90
2022-10-23T19:46:44.357Z,99.90
2022-10-23T19:49:12.713Z,99.90
2022-10-23T19:51:41.131Z,99.90
2022-10-23T19:54:10.679Z,99.90
2022-10-23T19:56:39.394Z,99.90
2022-10-23T19:59:07.658Z,99.90
2022-10-23T20:01:36.149Z,99.90
2022-10-23T20:04:04.374Z,99.90
2022-10-23T20:06:35.392Z,99.90
2022-10-23T20:09:07.885Z,99.90
2022-10-23T20:11:38.720Z,99.90
2022-10-23T20:14:07.734Z,99.90
2022-10-23T20:16:38.803Z,99.90
2022-10-23T20:19:09.761Z,99.90
2022-10-23T20:21:38.687Z,99.90
2022-10-23T20:24:07.502Z,99.90
2022-10-23T20:26:37.090Z,99.90
2022-10-23T20:29:05.512Z,99.90
2022-10-23T20:31:36.305Z,99.90
2022-10-23T20:34:04.514Z,99.90
2022-10-23T20:36:34.028Z,99.90
2022-10-23T20:39:05.643Z,99.90
2022-10-23T20:41:37.090Z,99.90
2022-10-23T20:44:07.852Z,99.90
2022-10-23T20:46:36.021Z,99.90
2022-10-23T20:49:04.668Z,99.90
2022-10-23T20:51:32.734Z,99.90
2022-10-23T20:54:00.759Z,99.90
2022-10-23T20:56:32.260Z,99.90
2022-10-23T20:59:01.645Z,99.90
2022-10-23T21:01:31.972Z,99.90
2022-10-23T21:04:02.132Z,99.90
2022-10-23T21:06:45.718Z,99.90
2022-10-23T21:09:20.158Z,99.90
2022-10-23T21:11:48.257Z,99.90
2022-10-23T21:14:16.465Z,99.90
2022-10-23T21:16:46.577Z,99.90
2022-10-23T21:19:16.060Z,99.90
2022-10-23T21:21:44.744Z,99.90
2022-10-23T21:24:15.961Z,99.90
2022-10-23T21:26:44.458Z,99.90
2022-10-23T21:29:18.434Z,99.90
2022-10-23T21:31:53.129Z,99.90
2022-10-23T21:34:21.337Z,99.90
2022-10-23T21:37:11.337Z,99.90
2022-10-23T21:39:37.421Z,99.90
2022-10-23T21:42:05.592Z,99.90
2022-10-23T21:44:33.613Z,99.90
2022-10-23T21:47:03.059Z,99.90
2022-10-23T21:49:31.130Z,99.90
2022-10-23T21:51:59.130Z,99.90
2022-10-23T21:54:27.180Z,99.90
2022-10-23T21:56:55.285Z,99.90
2022-10-23T21:59:25.280Z,99.90
2022-10-23T22:01:54.890Z,99.90
2022-10-23T22:04:24.745Z,99.90
2022-10-23T22:06:53.165Z,99.90
2022-10-23T22:09:22.469Z,99.90
2022-10-23T22:11:51.217Z,99.90
2022-10-23T22:14:19.527Z,99.90
2022-10-23T22:16:48.080Z,99.90
2022-10-23T22:19:18.021Z,99.90
2022-10-23T22:21:47.637Z,99.90
2022-10-23T22:24:17.434Z,99.90
2022-10-23T22:26:47.799Z,99.90
2022-10-23T22:29:17.343Z,99.90
2022-10-23T22:31:49.617Z,99.90
2022-10-23T22:34:28.612Z,99.90
2022-10-23T22:37:11.221Z,99.90
2022-10-23T22:39:39.925Z,99.90
2022-10-23T22:42:08.041Z,99.90
2022-10-23T22:44:36.076Z,99.90
2022-10-23T22:47:04.321Z,99.90
2022-10-23T22:49:33.901Z,99.90
2022-10-23T22:52:01.921Z,99.90
2022-10-23T22:54:31.673Z,99.90
2022-10-23T22:56:59.729Z,99.90
2022-10-23T22:59:27.869Z,99.90
2022-10-23T23:01:56.014Z,99.90
2022-10-23T23:04:39.712Z,99.90
2022-10-23T23:07:08.914Z,99.90
2022-10-23T23:09:39.709Z,99.90
2022-10-23T23:12:08.612Z,99.90
2022-10-23T23:14:37.129Z,99.90
2022-10-23T23:17:06.107Z,99.90
2022-10-23T23:19:34.323Z,99.90
2022-10-23T23:22:02.322Z,99.90
2022-10-23T23:24:30.348Z,99.90
2022-10-23T23:26:59.740Z,99.90
2022-10-23T23:29:28.364Z,99.90
2022-10-23T23:31:56.456Z,99.90
2022-10-23T23:34:24.504Z,99.90
2022-10-23T23:36:52.510Z,99.90
2022-10-23T23:39:20.461Z,99.90
2022-10-23T23:41:48.457Z,99.90
2022-10-23T23:44:17.810Z,99.90
2022-10-23T23:46:45.826Z,99.90
2022-10-23T23:49:13.873Z,99.90
2022-10-23T23:51:41.924Z,99.90
2022-10-23T23:54:09.996Z,99.90
2022-10-23T23:56:38.274Z,99.90
2022-10-23T23:59:06.297Z,99.90
